Saluda, SC (29138)

7:13 PM EST on February 25, 2017 (GMT -0500)
| | Change Station
Active Advisory: Lake Wind Advisory

Elev -9999 ft 0.00 °N, 0.00 °E | Updated 7 minutes ago

Clear
Clear
°F
Feels Like °F
N
Wind Variable Wind from North
Gusts mph

Today
High -- | Low -- °F
--% Chance of Precip.
Yesterday
High -- | Low -- °F
Precip. -- in
Pressure 29.87 in
Visibility 10.0 miles
Clouds Clear
Dew Point Not available.
Humidity Not available.
Rainfall --
Snow Depth Not available.
7:00 AM 6:20 PM
Waning Crescent, 0% visible
METAR KAIK 252355Z AUTO 28010G18KT 10SM CLR 16/M07 A2987 RMK AO2
Pressure 29.87 in
Visibility 10.0 miles
Clouds Clear
Dew Point Not available.
Humidity Not available.
Rainfall --
Snow Depth Not available.
7:00 AM 6:20 PM
Waning Crescent, 0% visible
METAR KAIK 252355Z AUTO 28010G18KT 10SM CLR 16/M07 A2987 RMK AO2

Get Your Daily Forecast Email!

Thanks for signing up!

Be on the lookout for a verification email in your inbox.

You'll start receiving the daily forecast at 8 AM.

×

10-Day Weather Forecast

Almanac

Astronomy

Feb. 25, 2017 Rise Set
Actual Time
Civil Twilight
Nautical Twilight
Astronomical Twilight
Moon
Length of Visible Light
Length of Day
Tomorrow will be .
, % of the Moon is Illuminated

Today's Extremes

State Highs State Lows

Community

WunderPhotos

Upload Photos

1,962,540 photos uploaded!

WunderBlog® & News

Nearby

Air Quality

  Air Quality AQ Index Pollutant
Not available.

Snow Depth

Station Depth Elevation

Earthquake Activity

City Distance Mag. Time & Date
Minimum magnitude displayed is 2.5.

Coastal Water Temperatures

Place Temperature

Stations

Nearby Weather Stations

Station Location Temp. Windchill Dew Point Humidity Wind Precip. Elev Updated Type
                   

Watches & Warnings

Lake Wind Advisory
Issued: 10:53 AM EST Feb. 25, 2017 – National Weather Service

... Lake Wind Advisory remains in effect until 10 PM EST this
evening...

* timing... this afternoon and evening.

* Winds... west winds 15 to 25 knots with gusts to 30 knots.

* Impacts... strong winds and rough chop will create hazardous
conditions on area lakes.

Precautionary/preparedness actions...

A lake Wind Advisory indicates that winds will cause rough chop
on area lakes. Small boats will be especially prone to capsizing.